Time;durP1;ratioP1;P1;durP2;ratioP2;P2;SDS_P1;SDS_P2;PMS_P1;PMS_P2;Temp;Humidity;BMP_temperature;BMP_pressure;BME280_temperature;BME280_humidity;BME280_pressure;Samples;Min_cycle;Max_cycle;Signal;HPM_P1;HPM_P2
2022/05/25 00:00:06;;;;;;;1.58;1.48;;;;;16.70;101028.00;;;;5055492;28;20218;-84
2022/05/25 00:02:33;;;;;;;1.58;1.42;;;;;16.70;101030.00;;;;5061874;28;20190;-85
2022/05/25 00:05:01;;;;;;;2.45;1.85;;;;;16.70;101033.00;;;;5066745;28;20206;-85
2022/05/25 00:07:28;;;;;;;1.83;1.65;;;;;16.70;101038.00;;;;5063950;28;20218;-84
2022/05/25 00:09:55;;;;;;;1.65;1.45;;;;;16.60;101036.00;;;;5066677;28;20198;-84
2022/05/25 00:12:22;;;;;;;1.77;1.40;;;;;16.60;101038.00;;;;5066520;28;20206;-85
2022/05/25 00:14:51;;;;;;;1.92;1.73;;;;;16.60;101034.00;;;;5066289;28;20230;-85
2022/05/25 00:17:18;;;;;;;2.00;1.63;;;;;16.60;101040.00;;;;5063066;28;20210;-85
2022/05/25 00:20:01;;;;;;;3.38;1.75;;;;;16.60;101041.00;;;;5062515;28;20210;-84
2022/05/25 00:22:38;;;;;;;1.70;1.42;;;;;16.50;101043.00;;;;5058046;28;20607;-85
2022/05/25 00:25:07;;;;;;;1.70;1.58;;;;;16.50;101041.00;;;;5062741;28;20645;-85
2022/05/25 00:27:34;;;;;;;1.58;1.48;;;;;16.50;101048.00;;;;5058432;28;20219;-85
2022/05/25 00:30:03;;;;;;;2.88;1.85;;;;;16.50;101039.00;;;;5065147;28;20199;-84
2022/05/25 00:32:31;;;;;;;2.10;1.67;;;;;16.50;101045.00;;;;5056756;28;20191;-85
2022/05/25 00:34:58;;;;;;;4.97;2.08;;;;;16.40;101039.00;;;;5065242;28;20230;-84
2022/05/25 00:37:25;;;;;;;1.65;1.55;;;;;16.40;101046.00;;;;5065456;28;20202;-85
2022/05/25 00:39:52;;;;;;;3.42;1.90;;;;;16.40;101053.00;;;;5051393;28;20199;-85
2022/05/25 00:42:20;;;;;;;2.25;2.05;;;;;16.40;101054.00;;;;5056288;28;20242;-84
2022/05/25 00:44:48;;;;;;;1.92;1.75;;;;;16.40;101050.00;;;;5067271;28;20281;-86
2022/05/25 00:47:24;;;;;;;2.70;1.80;;;;;16.30;101051.00;;;;5072145;28;20199;-85
2022/05/25 00:49:52;;;;;;;2.53;1.83;;;;;16.30;101056.00;;;;5069532;28;20198;-85
2022/05/25 00:52:19;;;;;;;4.43;2.08;;;;;16.30;101066.00;;;;5070660;28;20195;-84
2022/05/25 00:54:50;;;;;;;2.58;1.95;;;;;16.30;101065.00;;;;5068871;28;20280;-86
2022/05/25 00:57:22;;;;;;;3.15;2.30;;;;;16.20;101063.00;;;;5072337;28;20206;-85
2022/05/25 00:59:58;;;;;;;2.58;2.05;;;;;16.20;101065.00;;;;5070101;28;20222;-86
2022/05/25 01:02:29;;;;;;;2.33;1.70;;;;;16.20;101063.00;;;;5058910;28;20290;-86
2022/05/25 01:04:57;;;;;;;4.47;2.05;;;;;16.20;101067.00;;;;5064885;28;20203;-86
2022/05/25 01:07:49;;;;;;;1.98;1.80;;;;;16.10;101059.00;;;;5069085;28;20203;-86
2022/05/25 01:10:32;;;;;;;2.38;2.17;;;;;16.10;101057.00;;;;5070886;28;20195;-85
2022/05/25 01:13:12;;;;;;;3.97;2.10;;;;;16.10;101061.00;;;;5069775;28;20206;-86
2022/05/25 01:15:50;;;;;;;2.63;2.22;;;;;16.10;101065.00;;;;5052537;28;20257;-85
2022/05/25 01:18:28;;;;;;;2.47;2.17;;;;;16.10;101058.00;;;;5060817;28;20198;-86
2022/05/25 01:21:02;;;;;;;2.08;1.88;;;;;16.10;101057.00;;;;5061920;28;20207;-85
2022/05/25 01:23:59;;;;;;;2.33;2.13;;;;;16.00;101060.00;;;;5063639;28;20222;-85
2022/05/25 01:27:14;;;;;;;2.78;2.20;;;;;16.00;101059.00;;;;5063189;28;20191;-86
2022/05/25 01:30:09;;;;;;;3.80;2.17;;;;;15.90;101067.00;;;;5010131;28;20410;-85
2022/05/25 01:32:56;;;;;;;2.65;2.08;;;;;15.90;101063.00;;;;5068640;28;20195;-85
2022/05/25 01:35:30;;;;;;;3.00;2.70;;;;;16.00;101063.00;;;;5061814;28;20249;-86
2022/05/25 01:38:08;;;;;;;2.50;2.03;;;;;16.00;101058.00;;;;5055916;28;20202;-86
2022/05/25 01:40:40;;;;;;;2.97;2.47;;;;;16.00;101061.00;;;;5062353;28;20269;-86
2022/05/25 01:43:12;;;;;;;3.10;2.60;;;;;15.90;101067.00;;;;5064752;28;20203;-86
2022/05/25 01:45:45;;;;;;;4.47;2.55;;;;;15.90;101072.00;;;;5067755;28;21080;-84
2022/05/25 01:48:15;;;;;;;11.48;2.67;;;;;16.00;101069.00;;;;5068707;28;20195;-85
2022/05/25 01:50:46;;;;;;;2.72;2.53;;;;;15.90;101072.00;;;;5055622;28;20666;-85
2022/05/25 01:53:16;;;;;;;3.72;2.55;;;;;15.90;101077.00;;;;5059167;28;20218;-85
2022/05/25 01:55:48;;;;;;;2.83;2.40;;;;;15.90;101078.00;;;;5065047;28;20868;-86
2022/05/25 01:58:18;;;;;;;2.60;2.38;;;;;15.90;101081.00;;;;5051109;28;20681;-86
2022/05/25 02:00:49;;;;;;;3.03;2.60;;;;;15.90;101080.00;;;;5063609;28;20214;-86
2022/05/25 02:06:37;;;;;;;3.85;2.72;;;;;15.80;101081.00;;;;5059778;28;20731;-85
2022/05/25 02:09:24;;;;;;;4.45;3.00;;;;;15.70;101078.00;;;;4995527;28;20603;-86
2022/05/25 02:11:58;;;;;;;4.45;2.78;;;;;15.80;101080.00;;;;5055742;28;20201;-85
2022/05/25 02:14:34;;;;;;;2.90;2.55;;;;;15.70;101078.00;;;;5062836;28;20552;-86
2022/05/25 02:17:13;;;;;;;2.88;2.53;;;;;15.70;101077.00;;;;5060189;28;20588;-86
2022/05/25 02:19:51;;;;;;;3.17;2.45;;;;;15.70;101085.00;;;;5063006;28;20203;-85
2022/05/25 02:22:21;;;;;;;2.83;2.38;;;;;15.80;101089.00;;;;5063826;28;20199;-85
2022/05/25 02:24:53;;;;;;;3.72;3.22;;;;;15.70;101083.00;;;;5052463;28;21055;-86
2022/05/25 02:27:29;;;;;;;3.83;3.13;;;;;15.70;101088.00;;;;5060798;28;20195;-86
2022/05/25 02:30:01;;;;;;;4.32;3.05;;;;;15.70;101081.00;;;;5057207;28;20191;-86
2022/05/25 02:32:36;;;;;;;4.93;2.63;;;;;15.70;101089.00;;;;5058171;28;20196;-86
2022/05/25 02:35:05;;;;;;;4.57;2.35;;;;;15.70;101090.00;;;;5062345;28;20566;-86
2022/05/25 02:37:35;;;;;;;4.53;3.15;;;;;15.70;101087.00;;;;5055423;28;20211;-86
2022/05/25 02:40:06;;;;;;;4.15;2.47;;;;;15.70;101094.00;;;;5067278;28;20198;-84
2022/05/25 02:42:34;;;;;;;3.53;2.80;;;;;15.70;101092.00;;;;5062081;28;20228;-86
2022/05/25 02:45:01;;;;;;;3.60;2.97;;;;;15.70;101095.00;;;;5060158;28;20214;-86
2022/05/25 02:47:29;;;;;;;3.72;2.92;;;;;15.70;101099.00;;;;5062972;28;20195;-86
2022/05/25 02:49:57;;;;;;;4.35;3.45;;;;;15.70;101090.00;;;;5062455;28;20649;-86
2022/05/25 02:52:24;;;;;;;3.13;2.80;;;;;15.70;101103.00;;;;5059673;28;20259;-87
2022/05/25 02:54:51;;;;;;;3.17;2.75;;;;;15.70;101104.00;;;;5067943;28;20237;-86
2022/05/25 02:57:19;;;;;;;4.65;3.33;;;;;15.60;101108.00;;;;5054268;28;20242;-87
2022/05/25 02:59:49;;;;;;;3.53;2.60;;;;;15.60;101116.00;;;;5066524;28;20551;-87
2022/05/25 03:02:16;;;;;;;3.15;2.75;;;;;15.60;101107.00;;;;5069419;28;20203;-87
2022/05/25 03:04:45;;;;;;;3.38;3.08;;;;;15.60;101105.00;;;;5062363;28;20191;-85
2022/05/25 03:07:12;;;;;;;3.75;2.83;;;;;15.60;101111.00;;;;5064049;28;20206;-86
2022/05/25 03:09:40;;;;;;;3.83;3.00;;;;;15.60;101117.00;;;;5054125;28;20204;-85
2022/05/25 03:12:08;;;;;;;3.63;3.05;;;;;15.60;101124.00;;;;5067807;28;20202;-85
2022/05/25 03:14:40;;;;;;;3.92;3.05;;;;;15.60;101122.00;;;;5066487;28;20218;-87
2022/05/25 03:17:12;;;;;;;3.28;2.97;;;;;15.60;101118.00;;;;5066337;28;20200;-86
2022/05/25 03:19:40;;;;;;;3.10;2.80;;;;;15.60;101119.00;;;;5058521;28;20720;-86
2022/05/25 03:22:09;;;;;;;5.57;3.42;;;;;15.50;101125.00;;;;5062860;28;20202;-87
2022/05/25 03:24:38;;;;;;;4.18;3.35;;;;;15.50;101130.00;;;;5067463;28;20198;-87
2022/05/25 03:27:06;;;;;;;4.10;3.63;;;;;15.60;101136.00;;;;5063025;28;20202;-86
2022/05/25 03:29:33;;;;;;;10.05;3.67;;;;;15.50;101131.00;;;;5056558;28;20200;-86
2022/05/25 03:32:01;;;;;;;3.53;3.22;;;;;15.50;101133.00;;;;5050997;28;20218;-86
2022/05/25 03:34:28;;;;;;;4.10;3.60;;;;;15.50;101139.00;;;;5054632;28;20209;-86
2022/05/25 03:36:56;;;;;;;3.95;3.55;;;;;15.50;101134.00;;;;5057078;28;20639;-86
2022/05/25 03:39:28;;;;;;;4.80;3.47;;;;;15.50;101129.00;;;;5050356;28;20192;-87
2022/05/25 03:41:56;;;;;;;4.22;3.22;;;;;15.50;101138.00;;;;5055528;28;20230;-86
2022/05/25 03:44:24;;;;;;;3.80;3.30;;;;;15.50;101141.00;;;;5055809;28;20203;-87
2022/05/25 03:46:52;;;;;;;3.85;2.92;;;;;15.50;101137.00;;;;5067037;28;20194;-85
2022/05/25 03:49:20;;;;;;;3.72;3.25;;;;;15.50;101146.00;;;;5057651;28;20206;-84
2022/05/25 03:51:48;;;;;;;3.70;3.38;;;;;15.50;101141.00;;;;5066624;28;20213;-86
2022/05/25 03:54:16;;;;;;;3.55;3.22;;;;;15.50;101140.00;;;;5068493;28;20190;-86
2022/05/25 03:56:45;;;;;;;3.55;3.20;;;;;15.50;101143.00;;;;5065353;28;20219;-85
2022/05/25 03:59:12;;;;;;;3.95;2.90;;;;;15.50;101143.00;;;;5067167;28;20195;-86
2022/05/25 04:01:39;;;;;;;3.83;3.15;;;;;15.50;101151.00;;;;5057202;28;20212;-85
2022/05/25 04:04:07;;;;;;;3.35;3.05;;;;;15.50;101147.00;;;;5052215;28;20223;-86
2022/05/25 04:06:34;;;;;;;3.90;3.03;;;;;15.50;101138.00;;;;5056386;28;20217;-87
2022/05/25 04:09:02;;;;;;;3.45;3.05;;;;;15.60;101143.00;;;;5064159;28;20191;-87
2022/05/25 04:11:29;;;;;;;3.67;3.17;;;;;15.60;101147.00;;;;5060448;28;20203;-86
2022/05/25 04:13:59;;;;;;;3.90;2.72;;;;;15.60;101150.00;;;;5064237;28;20205;-86
2022/05/25 04:16:27;;;;;;;4.13;3.30;;;;;15.60;101153.00;;;;5063784;28;20247;-87
2022/05/25 04:18:54;;;;;;;3.63;3.28;;;;;15.70;101153.00;;;;5056869;28;20206;-86
2022/05/25 04:21:21;;;;;;;3.80;3.13;;;;;15.70;101152.00;;;;5059060;28;20199;-86
2022/05/25 04:23:48;;;;;;;4.60;2.72;;;;;15.70;101153.00;;;;5061750;28;20676;-87
2022/05/25 04:26:16;;;;;;;3.60;3.08;;;;;15.70;101151.00;;;;5065399;28;20203;-87
2022/05/25 04:28:43;;;;;;;4.22;3.05;;;;;15.80;101152.00;;;;5050052;28;20200;-88
2022/05/25 04:31:12;;;;;;;4.13;3.25;;;;;15.80;101154.00;;;;5053940;28;20202;-87
2022/05/25 04:33:40;;;;;;;4.78;2.97;;;;;15.80;101155.00;;;;5066146;28;20202;-87
2022/05/25 04:36:08;;;;;;;3.50;2.95;;;;;15.90;101154.00;;;;5067164;28;20643;-88
2022/05/25 04:38:36;;;;;;;3.83;2.95;;;;;15.90;101162.00;;;;5066460;28;20646;-87
2022/05/25 04:41:04;;;;;;;3.17;2.88;;;;;16.00;101156.00;;;;5063314;28;20222;-86
2022/05/25 04:43:32;;;;;;;4.32;2.70;;;;;16.00;101159.00;;;;5058318;28;20212;-87
2022/05/25 04:46:01;;;;;;;3.75;3.20;;;;;16.10;101164.00;;;;5061878;28;20201;-86
2022/05/25 04:48:30;;;;;;;3.40;2.75;;;;;16.10;101160.00;;;;5059117;28;20206;-86
2022/05/25 04:50:58;;;;;;;3.85;3.00;;;;;16.20;101159.00;;;;5053575;28;20204;-87
2022/05/25 04:53:27;;;;;;;4.55;3.42;;;;;16.20;101163.00;;;;5064760;28;20748;-87
2022/05/25 04:58:43;;;;;;;4.32;3.20;;;;;16.30;101167.00;;;;5056320;28;20889;-86
2022/05/25 05:01:12;;;;;;;9.25;3.33;;;;;16.40;101160.00;;;;5061357;28;20211;-86
2022/05/25 05:03:41;;;;;;;4.55;3.33;;;;;16.50;101164.00;;;;5064430;28;20188;-86
2022/05/25 05:06:12;;;;;;;4.43;3.35;;;;;16.50;101165.00;;;;5058821;28;20240;-87
2022/05/25 05:08:40;;;;;;;7.88;3.28;;;;;16.60;101164.00;;;;5050385;28;20199;-86
2022/05/25 05:11:09;;;;;;;6.20;3.75;;;;;16.70;101158.00;;;;5066384;28;20186;-87
2022/05/25 05:13:37;;;;;;;5.63;3.78;;;;;16.80;101164.00;;;;5066641;28;20203;-86
2022/05/25 05:16:07;;;;;;;5.68;3.80;;;;;16.80;101162.00;;;;5064093;28;20259;-86
2022/05/25 05:18:35;;;;;;;4.28;3.30;;;;;16.90;101166.00;;;;5054295;28;20183;-86
2022/05/25 05:21:03;;;;;;;4.35;3.75;;;;;17.00;101165.00;;;;5062815;28;20203;-86
2022/05/25 05:23:31;;;;;;;7.25;3.25;;;;;17.10;101168.00;;;;5064117;28;20191;-85
2022/05/25 05:25:58;;;;;;;5.93;4.18;;;;;17.10;101160.00;;;;5057535;28;20200;-86
2022/05/25 05:28:31;;;;;;;4.05;3.55;;;;;17.20;101158.00;;;;5061939;28;20591;-85
2022/05/25 05:31:02;;;;;;;9.38;4.30;;;;;17.30;101164.00;;;;5064892;28;20199;-86
2022/05/25 05:33:29;;;;;;;5.43;4.45;;;;;17.40;101165.00;;;;5069016;28;20213;-86
2022/05/25 05:36:00;;;;;;;5.00;4.00;;;;;17.40;101164.00;;;;5069744;28;20744;-87
2022/05/25 05:38:29;;;;;;;7.35;4.15;;;;;17.50;101169.00;;;;5069795;28;20191;-86
2022/05/25 05:40:57;;;;;;;5.10;4.28;;;;;17.60;101169.00;;;;5057418;28;20238;-84
2022/05/25 05:43:25;;;;;;;7.75;4.47;;;;;17.70;101177.00;;;;5052026;28;20258;-85
2022/05/25 05:45:55;;;;;;;6.80;4.45;;;;;17.70;101168.00;;;;5057486;28;20195;-87
2022/05/25 05:48:26;;;;;;;8.40;4.40;;;;;17.80;101165.00;;;;5061989;28;20199;-83
2022/05/25 05:50:55;;;;;;;4.93;3.88;;;;;17.90;101173.00;;;;5061978;28;20206;-83
2022/05/25 05:53:24;;;;;;;5.93;4.38;;;;;17.90;101180.00;;;;5054439;28;20195;-82
2022/05/25 05:55:53;;;;;;;4.50;3.83;;;;;18.00;101175.00;;;;5053374;28;20693;-84
2022/05/25 05:58:20;;;;;;;6.40;4.28;;;;;18.10;101169.00;;;;5069141;28;20213;-83
2022/05/25 06:00:47;;;;;;;5.43;4.05;;;;;18.10;101176.00;;;;5057097;28;20222;-83
2022/05/25 06:03:15;;;;;;;4.75;3.97;;;;;18.20;101172.00;;;;5069401;28;20195;-81
2022/05/25 06:05:43;;;;;;;7.35;4.40;;;;;18.30;101169.00;;;;5071695;28;20207;-80
2022/05/25 06:08:14;;;;;;;4.95;3.50;;;;;18.30;101177.00;;;;5072019;28;20657;-81
2022/05/25 06:10:41;;;;;;;4.95;4.30;;;;;18.40;101175.00;;;;5069432;28;20207;-83
2022/05/25 06:13:10;;;;;;;6.35;4.32;;;;;18.40;101181.00;;;;5068603;28;20209;-84
2022/05/25 06:21:09;;;;;;;5.95;3.90;;;;;18.60;101193.00;;;;5064151;28;20202;-80
2022/05/25 06:23:40;;;;;;;7.40;3.97;;;;;18.80;101189.00;;;;5050164;28;20199;-79
2022/05/25 06:26:07;;;;;;;5.38;3.90;;;;;18.90;101184.00;;;;5068399;28;20202;-80
2022/05/25 06:28:36;;;;;;;9.73;4.05;;;;;18.90;101191.00;;;;5063664;28;20184;-80
2022/05/25 06:31:03;;;;;;;6.57;4.35;;;;;19.00;101196.00;;;;5069828;28;20225;-80
2022/05/25 06:33:31;;;;;;;4.57;3.65;;;;;19.10;101195.00;;;;5049815;28;20206;-79
2022/05/25 06:36:11;;;;;;;6.30;4.20;;;;;19.10;101202.00;;;;5066675;28;20296;-79
2022/05/25 06:38:38;;;;;;;5.57;3.90;;;;;19.10;101199.00;;;;5069169;28;20293;-81
2022/05/25 06:41:05;;;;;;;5.72;3.85;;;;;19.10;101201.00;;;;5066944;28;20222;-76
2022/05/25 06:43:34;;;;;;;5.00;3.80;;;;;19.10;101209.00;;;;5049970;28;20203;-78
2022/05/25 06:46:02;;;;;;;7.53;4.13;;;;;19.20;101214.00;;;;5049710;28;20207;-79
2022/05/25 06:48:29;;;;;;;6.07;4.05;;;;;19.30;101213.00;;;;5050094;28;20207;-79
2022/05/25 06:50:56;;;;;;;7.20;3.92;;;;;19.30;101206.00;;;;5049253;28;20200;-78
2022/05/25 06:53:24;;;;;;;5.93;4.07;;;;;19.30;101205.00;;;;5064350;28;20199;-78
2022/05/25 06:55:52;;;;;;;5.95;4.07;;;;;19.40;101210.00;;;;5069533;28;20218;-79
2022/05/25 06:58:19;;;;;;;5.30;4.22;;;;;19.40;101222.00;;;;5069840;28;20202;-79
2022/05/25 07:00:48;;;;;;;5.80;4.30;;;;;19.40;101217.00;;;;5065626;28;20304;-78
2022/05/25 07:03:15;;;;;;;8.40;4.55;;;;;19.50;101222.00;;;;5068958;28;20199;-78
2022/05/25 07:05:43;;;;;;;6.38;4.18;;;;;19.50;101214.00;;;;5068021;28;20203;-78
2022/05/25 07:08:10;;;;;;;6.80;5.18;;;;;19.60;101219.00;;;;5057508;28;20198;-79
2022/05/25 07:10:37;;;;;;;8.73;5.60;;;;;19.60;101229.00;;;;5055740;28;20199;-79
2022/05/25 07:13:04;;;;;;;5.93;4.70;;;;;19.70;101225.00;;;;5067044;28;20195;-78
2022/05/25 07:15:32;;;;;;;5.72;5.05;;;;;19.70;101223.00;;;;5068433;28;20653;-79
2022/05/25 07:18:00;;;;;;;6.82;4.97;;;;;19.80;101232.00;;;;5066818;28;20592;-78
2022/05/25 07:20:27;;;;;;;8.90;5.18;;;;;19.90;101236.00;;;;5067962;28;20680;-78
2022/05/25 07:22:55;;;;;;;6.70;6.00;;;;;19.90;101248.00;;;;5061396;28;20199;-77
2022/05/25 07:25:22;;;;;;;7.95;5.53;;;;;19.90;101247.00;;;;5068813;28;20198;-78
2022/05/25 07:27:50;;;;;;;8.50;5.03;;;;;20.00;101251.00;;;;5061475;28;20202;-78
2022/05/25 07:30:17;;;;;;;6.65;5.70;;;;;20.10;101247.00;;;;5069877;28;20213;-77
2022/05/25 07:32:45;;;;;;;11.18;6.13;;;;;20.10;101251.00;;;;5066805;28;20202;-78
2022/05/25 07:35:16;;;;;;;10.07;6.55;;;;;20.20;101256.00;;;;5062956;28;20318;-80
2022/05/25 07:37:48;;;;;;;6.35;4.97;;;;;20.30;101253.00;;;;5067316;28;20223;-80
2022/05/25 07:40:21;;;;;;;6.05;5.45;;;;;20.40;101261.00;;;;5054258;28;20192;-77
2022/05/25 07:42:55;;;;;;;8.85;5.93;;;;;20.50;101248.00;;;;5018923;28;20196;-79
2022/05/25 07:45:23;;;;;;;6.07;5.47;;;;;20.70;101250.00;;;;5027185;28;20207;-79
2022/05/25 07:47:53;;;;;;;8.30;6.22;;;;;20.80;101252.00;;;;5023145;28;20228;-80
2022/05/25 07:50:23;;;;;;;11.05;6.88;;;;;20.90;101253.00;;;;5026617;28;20196;-79
2022/05/25 07:52:53;;;;;;;6.78;5.97;;;;;21.00;101242.00;;;;5018433;28;20255;-79
2022/05/25 07:55:22;;;;;;;8.15;6.22;;;;;21.20;101253.00;;;;5023717;28;20200;-80
2022/05/25 07:57:49;;;;;;;7.72;5.45;;;;;21.30;101252.00;;;;5018302;28;20224;-80
2022/05/25 08:00:18;;;;;;;7.65;6.88;;;;;21.30;101255.00;;;;5022800;28;20319;-80
2022/05/25 08:05:47;;;;;;;7.32;6.38;;;;;21.30;101263.00;;;;5020097;28;20227;-80
2022/05/25 08:08:17;;;;;;;8.68;6.75;;;;;21.40;101260.00;;;;5028217;28;20606;-82
2022/05/25 08:10:49;;;;;;;10.88;7.03;;;;;21.40;101254.00;;;;5021883;28;20196;-81
2022/05/25 08:13:17;;;;;;;8.25;7.40;;;;;21.40;101264.00;;;;5026774;28;20215;-81
2022/05/25 08:15:46;;;;;;;8.80;7.45;;;;;21.40;101267.00;;;;5023124;28;20217;-78
2022/05/25 08:18:15;;;;;;;12.65;7.75;;;;;21.40;101264.00;;;;5021835;28;20216;-79
2022/05/25 08:20:44;;;;;;;10.98;7.65;;;;;21.40;101263.00;;;;5018772;28;20765;-81
2022/05/25 08:23:14;;;;;;;7.90;7.10;;;;;21.50;101258.00;;;;5018037;28;20234;-79
2022/05/25 08:25:42;;;;;;;11.73;7.95;;;;;21.50;101262.00;;;;5019496;28;20199;-80
2022/05/25 08:28:09;;;;;;;8.68;7.40;;;;;21.60;101264.00;;;;5026034;28;20203;-79
2022/05/25 08:30:39;;;;;;;8.50;7.25;;;;;21.60;101263.00;;;;5019732;28;20602;-79
2022/05/25 08:33:07;;;;;;;7.68;6.57;;;;;21.60;101264.00;;;;5028305;28;20235;-81
2022/05/25 08:35:34;;;;;;;9.30;6.80;;;;;21.60;101265.00;;;;5025038;28;20223;-79
2022/05/25 08:38:03;;;;;;;11.75;7.20;;;;;21.60;101264.00;;;;5024429;28;20232;-80
2022/05/25 08:40:33;;;;;;;9.07;7.88;;;;;21.60;101269.00;;;;5030778;28;20208;-83
2022/05/25 08:43:04;;;;;;;8.45;7.60;;;;;21.70;101275.00;;;;5056079;28;20195;-82
2022/05/25 08:45:37;;;;;;;10.05;8.38;;;;;21.70;101269.00;;;;5064664;28;20245;-83
2022/05/25 08:48:07;;;;;;;9.15;7.07;;;;;21.80;101269.00;;;;5061350;28;20260;-80
2022/05/25 08:50:35;;;;;;;10.05;7.78;;;;;21.80;101270.00;;;;5065219;28;20649;-82
2022/05/25 08:53:04;;;;;;;9.30;7.90;;;;;21.80;101273.00;;;;5066167;28;20206;-82
2022/05/25 08:55:49;;;;;;;11.35;7.95;;;;;21.80;101280.00;;;;5061221;28;20203;-81
2022/05/25 08:58:18;;;;;;;9.82;8.63;;;;;21.90;101270.00;;;;5065936;28;20227;-82
2022/05/25 09:00:48;;;;;;;12.60;7.80;;;;;21.90;101272.00;;;;5077125;28;20218;-82
2022/05/25 09:03:24;;;;;;;9.07;7.55;;;;;22.00;101273.00;;;;5069692;28;20202;-84
2022/05/25 09:05:59;;;;;;;8.88;7.97;;;;;22.10;101272.00;;;;5071427;28;20199;-82
2022/05/25 09:08:37;;;;;;;9.63;7.82;;;;;22.10;101279.00;;;;5056484;28;20191;-82
2022/05/25 09:11:08;;;;;;;10.80;7.53;;;;;22.20;101283.00;;;;5062470;28;20206;-83
2022/05/25 09:13:40;;;;;;;11.15;7.55;;;;;22.30;101274.00;;;;5058421;28;20208;-83
2022/05/25 09:16:18;;;;;;;9.55;7.93;;;;;22.40;101272.00;;;;5066976;28;20199;-82
2022/05/25 09:18:54;;;;;;;9.85;7.60;;;;;22.50;101283.00;;;;5065072;28;20216;-82
2022/05/25 09:21:27;;;;;;;14.00;8.07;;;;;22.60;101284.00;;;;5067650;28;20198;-83
2022/05/25 09:23:59;;;;;;;8.48;6.07;;;;;22.60;101280.00;;;;5068592;28;20287;-81
2022/05/25 09:26:26;;;;;;;7.60;6.72;;;;;22.60;101287.00;;;;5068149;28;20206;-82
2022/05/25 09:28:58;;;;;;;8.00;5.60;;;;;22.60;101299.00;;;;5064182;28;20196;-81
2022/05/25 09:31:33;;;;;;;5.85;5.30;;;;;22.60;101289.00;;;;5061198;28;20202;-84
2022/05/25 09:34:04;;;;;;;8.30;5.10;;;;;22.70;101287.00;;;;5053832;28;20194;-83
2022/05/25 09:36:38;;;;;;;5.18;4.50;;;;;22.70;101291.00;;;;5067175;28;20342;-81
2022/05/25 09:39:14;;;;;;;4.15;3.40;;;;;22.70;101295.00;;;;5068831;28;20712;-82
2022/05/25 09:41:43;;;;;;;4.72;3.28;;;;;22.80;101294.00;;;;5057786;28;20221;-81
2022/05/25 09:44:13;;;;;;;3.50;3.20;;;;;22.80;101292.00;;;;5056837;28;20297;-81
2022/05/25 09:46:44;;;;;;;2.58;2.30;;;;;22.90;101286.00;;;;5055723;28;20196;-80
2022/05/25 09:49:25;;;;;;;2.65;1.95;;;;;22.90;101293.00;;;;5066223;28;20207;-82
2022/05/25 09:51:55;;;;;;;2.17;1.95;;;;;23.00;101287.00;;;;5053547;28;20223;-82
2022/05/25 09:54:30;;;;;;;2.70;2.05;;;;;23.00;101292.00;;;;5052812;28;20206;-81
2022/05/25 09:57:02;;;;;;;7.20;2.13;;;;;23.10;101290.00;;;;5050954;28;20233;-81
2022/05/25 09:59:34;;;;;;;3.03;1.92;;;;;23.00;101297.00;;;;5057636;28;20192;-81
2022/05/25 10:02:02;;;;;;;2.45;2.20;;;;;23.10;101298.00;;;;5051658;28;20219;-81
2022/05/25 10:04:51;;;;;;;2.75;1.63;;;;;23.10;101296.00;;;;5057015;28;20685;-83
2022/05/25 10:07:21;;;;;;;2.42;1.40;;;;;23.20;101302.00;;;;5062496;28;20264;-79
2022/05/25 10:09:52;;;;;;;1.95;1.23;;;;;23.20;101295.00;;;;5065311;28;20242;-81
2022/05/25 10:12:26;;;;;;;2.20;0.85;;;;;23.20;101291.00;;;;5065134;28;20195;-82
2022/05/25 10:15:00;;;;;;;2.42;0.75;;;;;23.20;101291.00;;;;5051226;28;20199;-82
2022/05/25 10:17:36;;;;;;;2.28;1.02;;;;;23.20;101301.00;;;;5054836;28;20226;-80
2022/05/25 10:20:06;;;;;;;1.48;0.90;;;;;23.20;101290.00;;;;5063680;28;20195;-79
2022/05/25 10:22:37;;;;;;;2.35;0.70;;;;;23.20;101294.00;;;;5065798;28;20195;-79
2022/05/25 10:25:09;;;;;;;3.70;0.98;;;;;23.20;101291.00;;;;5064840;28;20226;-80
2022/05/25 10:27:40;;;;;;;1.10;0.80;;;;;23.20;101284.00;;;;5067775;28;20190;-80
2022/05/25 10:39:13;;;;;;;2.70;1.00;;;;;23.60;101283.00;;;;5060690;28;20257;-79
2022/05/25 10:41:43;;;;;;;0.77;0.63;;;;;23.70;101302.00;;;;5066193;28;21040;-81
2022/05/25 10:44:17;;;;;;;1.65;0.77;;;;;23.70;101298.00;;;;5069015;28;20210;-80
2022/05/25 10:46:54;;;;;;;1.83;0.50;;;;;23.80;101287.00;;;;5068226;28;20289;-80
2022/05/25 10:49:27;;;;;;;0.40;0.40;;;;;24.00;101297.00;;;;5051755;28;20226;-80
2022/05/25 10:52:01;;;;;;;0.40;0.30;;;;;24.10;101290.00;;;;5048225;28;20203;-81
2022/05/25 10:54:46;;;;;;;1.70;0.45;;;;;24.10;101294.00;;;;5060590;28;20210;-79
2022/05/25 10:57:57;;;;;;;2.92;0.60;;;;;24.00;101312.00;;;;5062414;28;20748;-81
2022/05/25 11:00:36;;;;;;;1.80;0.50;;;;;24.10;101297.00;;;;5062976;28;20305;-83
2022/05/25 11:03:32;;;;;;;1.40;0.60;;;;;24.00;101302.00;;;;5065973;28;20198;-84
2022/05/25 11:06:15;;;;;;;1.23;0.68;;;;;24.00;101300.00;;;;5063874;28;20214;-83
2022/05/25 11:08:52;;;;;;;0.45;0.35;;;;;24.00;101294.00;;;;5062812;28;20265;-85
2022/05/25 11:11:27;;;;;;;1.10;0.55;;;;;23.90;101300.00;;;;5064401;28;20206;-84
2022/05/25 11:14:09;;;;;;;1.08;0.70;;;;;23.80;101299.00;;;;5066534;28;20281;-84
2022/05/25 11:16:49;;;;;;;2.97;0.70;;;;;23.70;101299.00;;;;5062795;28;20214;-83
2022/05/25 11:19:34;;;;;;;0.98;0.45;;;;;23.60;101289.00;;;;5061284;28;20187;-86
2022/05/25 11:22:10;;;;;;;1.77;0.60;;;;;23.60;101293.00;;;;5065012;28;20199;-84
2022/05/25 11:24:52;;;;;;;1.83;0.55;;;;;23.50;101284.00;;;;5064119;28;20198;-85
2022/05/25 11:27:29;;;;;;;1.85;0.43;;;;;23.50;101297.00;;;;5061187;28;20191;-84
2022/05/25 11:30:06;;;;;;;4.72;0.45;;;;;23.50;101294.00;;;;5050803;28;20302;-83
2022/05/25 11:32:46;;;;;;;0.63;0.35;;;;;23.40;101295.00;;;;5055070;28;20194;-81
2022/05/25 11:35:32;;;;;;;1.10;0.73;;;;;23.50;101296.00;;;;5059439;28;20301;-82
2022/05/25 11:38:17;;;;;;;2.92;0.80;;;;;23.50;101295.00;;;;5063966;28;20227;-83
2022/05/25 11:40:52;;;;;;;2.75;0.80;;;;;23.60;101287.00;;;;5066326;28;20222;-82
2022/05/25 11:43:58;;;;;;;1.30;0.60;;;;;23.60;101294.00;;;;5066474;28;20186;-82
2022/05/25 11:46:41;;;;;;;2.08;0.73;;;;;23.70;101303.00;;;;5062092;28;20235;-81
2022/05/25 11:49:34;;;;;;;2.90;0.98;;;;;23.70;101300.00;;;;5065497;28;20203;-80
2022/05/25 11:52:11;;;;;;;0.57;0.40;;;;;23.80;101300.00;;;;5037104;28;22120;-81
2022/05/25 11:54:54;;;;;;;4.40;0.47;;;;;23.80;101299.00;;;;5053491;28;20195;-81
2022/05/25 11:57:27;;;;;;;1.00;0.20;;;;;23.80;101291.00;;;;5063735;28;20229;-81
2022/05/25 12:00:07;;;;;;;1.95;0.60;;;;;23.80;101285.00;;;;5060651;28;20218;-82
2022/05/25 12:03:18;;;;;;;0.35;0.30;;;;;23.90;101298.00;;;;5063046;28;20627;-82
2022/05/25 12:05:58;;;;;;;2.03;0.40;;;;;24.00;101313.00;;;;5006103;28;20208;-81
2022/05/25 12:08:42;;;;;;;1.73;0.60;;;;;24.00;101298.00;;;;5050828;28;20195;-82
2022/05/25 12:11:20;;;;;;;2.17;0.52;;;;;24.10;101292.00;;;;5062333;28;20202;-82
2022/05/25 12:13:54;;;;;;;1.40;0.60;;;;;24.10;101312.00;;;;5055740;28;20218;-83
2022/05/25 12:16:24;;;;;;;3.67;0.80;;;;;24.20;101298.00;;;;5061161;28;20214;-80
2022/05/25 12:19:03;;;;;;;2.10;0.70;;;;;24.20;101289.00;;;;5052597;28;20270;-79
2022/05/25 12:21:34;;;;;;;2.05;0.68;;;;;24.20;101296.00;;;;5059240;28;21192;-78
2022/05/25 12:24:06;;;;;;;1.77;0.70;;;;;24.30;101296.00;;;;5073133;28;20191;-80
2022/05/25 12:26:36;;;;;;;3.60;0.65;;;;;24.30;101292.00;;;;5071960;28;20961;-78
2022/05/25 12:29:12;;;;;;;2.92;0.40;;;;;24.40;101296.00;;;;5057738;28;20673;-77
2022/05/25 12:31:41;;;;;;;1.08;0.50;;;;;24.40;101301.00;;;;5064858;28;20229;-77
2022/05/25 12:34:12;;;;;;;1.23;0.50;;;;;24.30;101307.00;;;;5066415;28;20198;-79
2022/05/25 12:36:42;;;;;;;2.83;0.73;;;;;24.30;101304.00;;;;5064176;28;20214;-78
2022/05/25 12:39:10;;;;;;;1.63;0.77;;;;;24.30;101303.00;;;;5069014;28;20226;-78
2022/05/25 12:41:39;;;;;;;0.68;0.40;;;;;24.20;101301.00;;;;5066696;28;20219;-78
2022/05/25 12:49:49;;;;;;;1.30;0.70;;;;;23.90;101309.00;;;;5068915;28;20194;-77
2022/05/25 12:52:49;;;;;;;3.47;0.80;;;;;23.70;101324.00;;;;5060911;28;20230;-78
2022/05/25 12:55:34;;;;;;;2.00;0.50;;;;;23.70;101312.00;;;;5063541;28;20198;-78
2022/05/25 12:58:03;;;;;;;1.25;0.40;;;;;23.70;101317.00;;;;5064474;28;20227;-79
2022/05/25 13:00:42;;;;;;;1.15;0.77;;;;;23.60;101306.00;;;;5065975;28;20218;-78